sensor_id;sensor_type;location;lat;lon;timestamp;P1;durP1;ratioP1;P2;durP2;ratioP2
28304;SDS011;15569;42.652;23.040;2022-08-25T00:01:43;8.13;;;4.57;;
28304;SDS011;15569;42.652;23.040;2022-08-25T00:04:12;9.07;;;4.57;;
28304;SDS011;15569;42.652;23.040;2022-08-25T00:06:39;20.23;;;4.72;;
28304;SDS011;15569;42.652;23.040;2022-08-25T00:09:07;13.50;;;4.38;;
28304;SDS011;15569;42.652;23.040;2022-08-25T00:11:33;15.20;;;4.60;;
28304;SDS011;15569;42.652;23.040;2022-08-25T00:14:02;11.85;;;4.70;;
28304;SDS011;15569;42.652;23.040;2022-08-25T00:16:32;10.75;;;4.50;;
28304;SDS011;15569;42.652;23.040;2022-08-25T00:18:59;16.38;;;4.35;;
28304;SDS011;15569;42.652;23.040;2022-08-25T00:21:28;18.55;;;5.13;;
28304;SDS011;15569;42.652;23.040;2022-08-25T00:23:55;11.20;;;4.18;;
28304;SDS011;15569;42.652;23.040;2022-08-25T00:26:21;12.82;;;4.72;;
28304;SDS011;15569;42.652;23.040;2022-08-25T00:28:47;21.25;;;5.38;;
28304;SDS011;15569;42.652;23.040;2022-08-25T00:31:14;16.88;;;5.20;;
28304;SDS011;15569;42.652;23.040;2022-08-25T00:33:42;16.08;;;5.05;;
28304;SDS011;15569;42.652;23.040;2022-08-25T00:36:09;22.65;;;6.25;;
28304;SDS011;15569;42.652;23.040;2022-08-25T00:38:37;9.07;;;4.63;;
28304;SDS011;15569;42.652;23.040;2022-08-25T00:41:06;15.23;;;4.60;;
28304;SDS011;15569;42.652;23.040;2022-08-25T00:46:13;15.80;;;4.57;;
28304;SDS011;15569;42.652;23.040;2022-08-25T00:48:42;15.23;;;5.38;;
28304;SDS011;15569;42.652;23.040;2022-08-25T00:51:11;22.60;;;4.75;;
28304;SDS011;15569;42.652;23.040;2022-08-25T00:53:39;15.95;;;4.82;;
28304;SDS011;15569;42.652;23.040;2022-08-25T00:56:05;15.23;;;4.50;;
28304;SDS011;15569;42.652;23.040;2022-08-25T00:58:31;17.88;;;4.80;;
28304;SDS011;15569;42.652;23.040;2022-08-25T01:00:58;18.20;;;4.97;;
28304;SDS011;15569;42.652;23.040;2022-08-25T01:03:25;11.43;;;4.45;;
28304;SDS011;15569;42.652;23.040;2022-08-25T01:05:52;16.70;;;4.68;;
28304;SDS011;15569;42.652;23.040;2022-08-25T01:08:19;21.17;;;4.80;;
28304;SDS011;15569;42.652;23.040;2022-08-25T01:10:48;17.27;;;4.28;;
28304;SDS011;15569;42.652;23.040;2022-08-25T01:13:19;11.40;;;5.07;;
28304;SDS011;15569;42.652;23.040;2022-08-25T01:15:48;22.58;;;6.28;;
28304;SDS011;15569;42.652;23.040;2022-08-25T01:18:18;18.48;;;5.40;;
28304;SDS011;15569;42.652;23.040;2022-08-25T01:20:53;15.25;;;5.57;;
28304;SDS011;15569;42.652;23.040;2022-08-25T01:23:20;15.25;;;5.95;;
28304;SDS011;15569;42.652;23.040;2022-08-25T01:28:21;14.85;;;5.38;;
28304;SDS011;15569;42.652;23.040;2022-08-25T01:30:46;16.45;;;5.30;;
28304;SDS011;15569;42.652;23.040;2022-08-25T01:33:13;17.85;;;4.85;;
28304;SDS011;15569;42.652;23.040;2022-08-25T01:35:41;18.23;;;5.10;;
28304;SDS011;15569;42.652;23.040;2022-08-25T01:38:07;17.23;;;5.40;;
28304;SDS011;15569;42.652;23.040;2022-08-25T01:40:33;18.25;;;5.38;;
28304;SDS011;15569;42.652;23.040;2022-08-25T01:45:37;12.48;;;4.05;;
28304;SDS011;15569;42.652;23.040;2022-08-25T01:48:05;11.18;;;3.88;;
28304;SDS011;15569;42.652;23.040;2022-08-25T01:50:32;14.00;;;3.90;;
28304;SDS011;15569;42.652;23.040;2022-08-25T01:52:59;15.63;;;3.85;;
28304;SDS011;15569;42.652;23.040;2022-08-25T01:55:29;7.28;;;4.53;;
28304;SDS011;15569;42.652;23.040;2022-08-25T01:58:15;14.60;;;4.68;;
28304;SDS011;15569;42.652;23.040;2022-08-25T02:00:44;10.05;;;4.65;;
28304;SDS011;15569;42.652;23.040;2022-08-25T02:03:14;11.60;;;4.40;;
28304;SDS011;15569;42.652;23.040;2022-08-25T02:05:41;10.95;;;4.30;;
28304;SDS011;15569;42.652;23.040;2022-08-25T02:08:07;13.23;;;4.50;;
28304;SDS011;15569;42.652;23.040;2022-08-25T02:10:32;11.40;;;4.00;;
28304;SDS011;15569;42.652;23.040;2022-08-25T02:12:58;11.27;;;4.65;;
28304;SDS011;15569;42.652;23.040;2022-08-25T02:15:24;14.88;;;4.95;;
28304;SDS011;15569;42.652;23.040;2022-08-25T02:17:49;17.77;;;4.18;;
28304;SDS011;15569;42.652;23.040;2022-08-25T02:20:15;13.20;;;4.28;;
28304;SDS011;15569;42.652;23.040;2022-08-25T02:22:41;8.95;;;3.95;;
28304;SDS011;15569;42.652;23.040;2022-08-25T02:25:06;26.23;;;4.72;;
28304;SDS011;15569;42.652;23.040;2022-08-25T02:27:32;15.35;;;4.68;;
28304;SDS011;15569;42.652;23.040;2022-08-25T02:29:58;13.02;;;4.93;;
28304;SDS011;15569;42.652;23.040;2022-08-25T02:32:23;13.90;;;4.38;;
28304;SDS011;15569;42.652;23.040;2022-08-25T02:34:48;10.13;;;3.60;;
28304;SDS011;15569;42.652;23.040;2022-08-25T02:37:14;13.93;;;4.90;;
28304;SDS011;15569;42.652;23.040;2022-08-25T02:39:39;9.77;;;4.20;;
28304;SDS011;15569;42.652;23.040;2022-08-25T02:42:05;15.02;;;4.47;;
28304;SDS011;15569;42.652;23.040;2022-08-25T02:44:31;19.83;;;5.38;;
28304;SDS011;15569;42.652;23.040;2022-08-25T02:46:56;17.58;;;5.22;;
28304;SDS011;15569;42.652;23.040;2022-08-25T02:49:22;17.88;;;5.65;;
28304;SDS011;15569;42.652;23.040;2022-08-25T02:51:48;16.55;;;5.47;;
28304;SDS011;15569;42.652;23.040;2022-08-25T02:54:13;9.95;;;4.70;;
28304;SDS011;15569;42.652;23.040;2022-08-25T02:56:40;17.92;;;5.28;;
28304;SDS011;15569;42.652;23.040;2022-08-25T02:59:06;15.73;;;4.50;;
28304;SDS011;15569;42.652;23.040;2022-08-25T03:01:32;13.63;;;4.93;;
28304;SDS011;15569;42.652;23.040;2022-08-25T03:03:58;11.63;;;5.13;;
28304;SDS011;15569;42.652;23.040;2022-08-25T03:06:23;10.60;;;4.80;;
28304;SDS011;15569;42.652;23.040;2022-08-25T03:08:50;10.45;;;4.70;;
28304;SDS011;15569;42.652;23.040;2022-08-25T03:11:17;13.68;;;5.72;;
28304;SDS011;15569;42.652;23.040;2022-08-25T03:13:43;11.65;;;5.00;;
28304;SDS011;15569;42.652;23.040;2022-08-25T03:16:09;12.90;;;5.25;;
28304;SDS011;15569;42.652;23.040;2022-08-25T03:18:35;14.05;;;5.55;;
28304;SDS011;15569;42.652;23.040;2022-08-25T03:21:01;15.68;;;5.32;;
28304;SDS011;15569;42.652;23.040;2022-08-25T03:23:27;10.52;;;4.45;;
28304;SDS011;15569;42.652;23.040;2022-08-25T03:25:53;12.68;;;5.13;;
28304;SDS011;15569;42.652;23.040;2022-08-25T03:28:37;11.52;;;4.68;;
28304;SDS011;15569;42.652;23.040;2022-08-25T03:31:02;13.00;;;5.15;;
28304;SDS011;15569;42.652;23.040;2022-08-25T03:33:28;14.93;;;5.10;;
28304;SDS011;15569;42.652;23.040;2022-08-25T03:35:54;8.82;;;4.60;;
28304;SDS011;15569;42.652;23.040;2022-08-25T03:38:20;7.90;;;4.18;;
28304;SDS011;15569;42.652;23.040;2022-08-25T03:40:46;16.15;;;4.28;;
28304;SDS011;15569;42.652;23.040;2022-08-25T03:43:13;11.38;;;4.00;;
28304;SDS011;15569;42.652;23.040;2022-08-25T03:45:39;16.30;;;4.38;;
28304;SDS011;15569;42.652;23.040;2022-08-25T03:48:06;26.00;;;6.45;;
28304;SDS011;15569;42.652;23.040;2022-08-25T03:50:31;9.40;;;4.70;;
28304;SDS011;15569;42.652;23.040;2022-08-25T03:52:57;10.27;;;4.07;;
28304;SDS011;15569;42.652;23.040;2022-08-25T03:55:23;12.15;;;5.03;;
28304;SDS011;15569;42.652;23.040;2022-08-25T03:57:50;16.10;;;4.90;;
28304;SDS011;15569;42.652;23.040;2022-08-25T04:00:17;11.93;;;4.72;;
28304;SDS011;15569;42.652;23.040;2022-08-25T04:02:43;13.02;;;4.75;;
28304;SDS011;15569;42.652;23.040;2022-08-25T04:05:09;13.98;;;4.95;;
28304;SDS011;15569;42.652;23.040;2022-08-25T04:07:35;11.35;;;5.15;;
28304;SDS011;15569;42.652;23.040;2022-08-25T04:10:00;16.00;;;5.22;;
28304;SDS011;15569;42.652;23.040;2022-08-25T04:12:26;10.57;;;4.80;;
28304;SDS011;15569;42.652;23.040;2022-08-25T04:14:51;18.10;;;5.05;;
28304;SDS011;15569;42.652;23.040;2022-08-25T04:17:17;15.95;;;4.97;;
28304;SDS011;15569;42.652;23.040;2022-08-25T04:19:42;13.77;;;4.88;;
28304;SDS011;15569;42.652;23.040;2022-08-25T04:22:08;15.07;;;4.72;;
28304;SDS011;15569;42.652;23.040;2022-08-25T04:24:33;10.63;;;4.45;;
28304;SDS011;15569;42.652;23.040;2022-08-25T04:26:59;13.70;;;5.15;;
28304;SDS011;15569;42.652;23.040;2022-08-25T04:31:57;13.13;;;5.05;;
28304;SDS011;15569;42.652;23.040;2022-08-25T04:34:23;11.70;;;4.93;;
28304;SDS011;15569;42.652;23.040;2022-08-25T04:36:49;13.63;;;4.75;;
28304;SDS011;15569;42.652;23.040;2022-08-25T04:39:15;11.88;;;4.75;;
28304;SDS011;15569;42.652;23.040;2022-08-25T04:41:44;13.07;;;4.78;;
28304;SDS011;15569;42.652;23.040;2022-08-25T04:44:10;12.15;;;5.13;;
28304;SDS011;15569;42.652;23.040;2022-08-25T04:46:35;14.45;;;4.82;;
28304;SDS011;15569;42.652;23.040;2022-08-25T04:49:01;6.13;;;4.45;;
28304;SDS011;15569;42.652;23.040;2022-08-25T04:51:28;11.23;;;4.70;;
28304;SDS011;15569;42.652;23.040;2022-08-25T04:53:59;17.05;;;5.78;;
28304;SDS011;15569;42.652;23.040;2022-08-25T04:58:52;17.73;;;5.00;;
28304;SDS011;15569;42.652;23.040;2022-08-25T05:01:19;10.55;;;4.10;;
28304;SDS011;15569;42.652;23.040;2022-08-25T05:03:51;13.73;;;4.22;;
28304;SDS011;15569;42.652;23.040;2022-08-25T05:06:19;12.48;;;4.95;;
28304;SDS011;15569;42.652;23.040;2022-08-25T05:08:44;11.63;;;4.72;;
28304;SDS011;15569;42.652;23.040;2022-08-25T05:11:11;24.20;;;5.18;;
28304;SDS011;15569;42.652;23.040;2022-08-25T05:13:38;13.70;;;4.82;;
28304;SDS011;15569;42.652;23.040;2022-08-25T05:16:04;13.18;;;5.35;;
28304;SDS011;15569;42.652;23.040;2022-08-25T05:18:30;19.13;;;4.47;;
28304;SDS011;15569;42.652;23.040;2022-08-25T05:21:00;11.95;;;5.40;;
28304;SDS011;15569;42.652;23.040;2022-08-25T05:23:30;10.60;;;5.47;;
28304;SDS011;15569;42.652;23.040;2022-08-25T05:25:59;10.65;;;6.43;;
28304;SDS011;15569;42.652;23.040;2022-08-25T05:28:27;16.33;;;5.85;;
28304;SDS011;15569;42.652;23.040;2022-08-25T05:30:55;21.38;;;7.03;;
28304;SDS011;15569;42.652;23.040;2022-08-25T05:35:50;15.75;;;6.63;;
28304;SDS011;15569;42.652;23.040;2022-08-25T05:38:16;14.43;;;6.97;;
28304;SDS011;15569;42.652;23.040;2022-08-25T05:40:41;13.50;;;5.50;;
28304;SDS011;15569;42.652;23.040;2022-08-25T05:43:07;17.27;;;7.13;;
28304;SDS011;15569;42.652;23.040;2022-08-25T05:45:33;22.13;;;6.43;;
28304;SDS011;15569;42.652;23.040;2022-08-25T05:47:59;21.58;;;6.78;;
28304;SDS011;15569;42.652;23.040;2022-08-25T05:50:25;15.40;;;5.80;;
28304;SDS011;15569;42.652;23.040;2022-08-25T05:52:51;10.10;;;6.50;;
28304;SDS011;15569;42.652;23.040;2022-08-25T05:55:17;19.92;;;5.95;;
28304;SDS011;15569;42.652;23.040;2022-08-25T05:57:42;17.95;;;5.72;;
28304;SDS011;15569;42.652;23.040;2022-08-25T06:00:08;19.63;;;6.30;;
28304;SDS011;15569;42.652;23.040;2022-08-25T06:02:34;17.08;;;6.90;;
28304;SDS011;15569;42.652;23.040;2022-08-25T06:05:06;15.02;;;5.72;;
28304;SDS011;15569;42.652;23.040;2022-08-25T06:07:32;15.82;;;5.40;;
28304;SDS011;15569;42.652;23.040;2022-08-25T06:10:00;16.13;;;6.55;;
28304;SDS011;15569;42.652;23.040;2022-08-25T06:12:26;18.58;;;6.93;;
28304;SDS011;15569;42.652;23.040;2022-08-25T06:14:52;14.18;;;6.57;;
28304;SDS011;15569;42.652;23.040;2022-08-25T06:17:17;19.23;;;7.38;;
28304;SDS011;15569;42.652;23.040;2022-08-25T06:19:43;12.80;;;6.85;;
28304;SDS011;15569;42.652;23.040;2022-08-25T06:22:08;16.23;;;7.60;;
28304;SDS011;15569;42.652;23.040;2022-08-25T06:24:34;18.52;;;7.95;;
28304;SDS011;15569;42.652;23.040;2022-08-25T06:27:00;25.20;;;8.20;;
28304;SDS011;15569;42.652;23.040;2022-08-25T06:29:26;10.40;;;6.15;;
28304;SDS011;15569;42.652;23.040;2022-08-25T06:31:51;12.68;;;6.75;;
28304;SDS011;15569;42.652;23.040;2022-08-25T06:34:17;18.70;;;7.28;;
28304;SDS011;15569;42.652;23.040;2022-08-25T06:36:43;15.65;;;7.78;;
28304;SDS011;15569;42.652;23.040;2022-08-25T06:39:09;21.67;;;9.60;;
28304;SDS011;15569;42.652;23.040;2022-08-25T06:41:35;20.95;;;9.57;;
28304;SDS011;15569;42.652;23.040;2022-08-25T06:44:00;26.52;;;9.43;;
28304;SDS011;15569;42.652;23.040;2022-08-25T06:46:26;17.70;;;7.68;;
28304;SDS011;15569;42.652;23.040;2022-08-25T06:48:52;19.00;;;6.82;;
28304;SDS011;15569;42.652;23.040;2022-08-25T06:51:19;19.17;;;9.45;;
28304;SDS011;15569;42.652;23.040;2022-08-25T06:53:46;16.83;;;7.30;;
28304;SDS011;15569;42.652;23.040;2022-08-25T06:56:13;32.13;;;14.65;;
28304;SDS011;15569;42.652;23.040;2022-08-25T06:58:40;27.13;;;9.80;;
28304;SDS011;15569;42.652;23.040;2022-08-25T07:01:13;20.60;;;6.38;;
28304;SDS011;15569;42.652;23.040;2022-08-25T07:03:40;19.50;;;6.78;;
28304;SDS011;15569;42.652;23.040;2022-08-25T07:06:06;14.02;;;6.68;;
28304;SDS011;15569;42.652;23.040;2022-08-25T07:08:32;25.20;;;8.20;;
28304;SDS011;15569;42.652;23.040;2022-08-25T07:11:03;14.60;;;7.93;;
28304;SDS011;15569;42.652;23.040;2022-08-25T07:13:33;11.38;;;6.55;;
28304;SDS011;15569;42.652;23.040;2022-08-25T07:15:59;14.45;;;7.90;;
28304;SDS011;15569;42.652;23.040;2022-08-25T07:18:24;12.05;;;7.75;;
28304;SDS011;15569;42.652;23.040;2022-08-25T07:20:50;13.35;;;6.70;;
28304;SDS011;15569;42.652;23.040;2022-08-25T07:23:17;18.92;;;6.85;;
28304;SDS011;15569;42.652;23.040;2022-08-25T07:25:44;18.77;;;6.63;;
28304;SDS011;15569;42.652;23.040;2022-08-25T07:28:09;22.63;;;7.60;;
28304;SDS011;15569;42.652;23.040;2022-08-25T07:30:35;20.35;;;6.13;;
28304;SDS011;15569;42.652;23.040;2022-08-25T07:33:00;14.30;;;6.57;;
28304;SDS011;15569;42.652;23.040;2022-08-25T07:35:25;17.88;;;7.78;;
28304;SDS011;15569;42.652;23.040;2022-08-25T07:37:52;12.75;;;5.57;;
28304;SDS011;15569;42.652;23.040;2022-08-25T07:40:27;27.60;;;7.53;;
28304;SDS011;15569;42.652;23.040;2022-08-25T07:42:56;16.42;;;5.93;;
28304;SDS011;15569;42.652;23.040;2022-08-25T07:45:24;14.80;;;6.78;;
28304;SDS011;15569;42.652;23.040;2022-08-25T07:47:56;26.52;;;15.45;;
28304;SDS011;15569;42.652;23.040;2022-08-25T07:50:24;20.90;;;8.95;;
28304;SDS011;15569;42.652;23.040;2022-08-25T07:52:50;25.23;;;10.77;;
28304;SDS011;15569;42.652;23.040;2022-08-25T07:55:15;19.80;;;8.50;;
28304;SDS011;15569;42.652;23.040;2022-08-25T07:57:41;32.17;;;14.63;;
28304;SDS011;15569;42.652;23.040;2022-08-25T08:00:07;21.65;;;7.90;;
28304;SDS011;15569;42.652;23.040;2022-08-25T08:02:36;24.50;;;12.40;;
28304;SDS011;15569;42.652;23.040;2022-08-25T08:05:02;28.00;;;15.38;;
28304;SDS011;15569;42.652;23.040;2022-08-25T08:07:28;27.65;;;9.82;;
28304;SDS011;15569;42.652;23.040;2022-08-25T08:09:53;15.90;;;8.43;;
28304;SDS011;15569;42.652;23.040;2022-08-25T08:12:20;21.85;;;8.30;;
28304;SDS011;15569;42.652;23.040;2022-08-25T08:14:45;43.92;;;16.58;;
28304;SDS011;15569;42.652;23.040;2022-08-25T08:17:11;21.83;;;6.70;;
28304;SDS011;15569;42.652;23.040;2022-08-25T08:19:36;25.90;;;10.27;;
28304;SDS011;15569;42.652;23.040;2022-08-25T08:22:03;31.73;;;11.95;;
28304;SDS011;15569;42.652;23.040;2022-08-25T08:24:30;22.27;;;8.85;;
28304;SDS011;15569;42.652;23.040;2022-08-25T08:26:56;30.08;;;8.98;;
28304;SDS011;15569;42.652;23.040;2022-08-25T08:29:23;25.85;;;7.80;;
28304;SDS011;15569;42.652;23.040;2022-08-25T08:31:48;27.65;;;11.10;;
28304;SDS011;15569;42.652;23.040;2022-08-25T08:34:14;25.15;;;7.55;;
28304;SDS011;15569;42.652;23.040;2022-08-25T08:36:40;35.70;;;10.30;;
28304;SDS011;15569;42.652;23.040;2022-08-25T08:39:05;32.03;;;8.10;;
28304;SDS011;15569;42.652;23.040;2022-08-25T08:49:48;26.23;;;7.10;;
28304;SDS011;15569;42.652;23.040;2022-08-25T08:52:36;18.58;;;7.57;;
28304;SDS011;15569;42.652;23.040;2022-08-25T08:55:10;25.83;;;6.65;;
28304;SDS011;15569;42.652;23.040;2022-08-25T08:57:44;36.95;;;12.38;;
28304;SDS011;15569;42.652;23.040;2022-08-25T09:00:13;28.60;;;10.90;;
28304;SDS011;15569;42.652;23.040;2022-08-25T09:02:50;39.63;;;16.30;;
28304;SDS011;15569;42.652;23.040;2022-08-25T09:05:21;37.75;;;12.93;;
28304;SDS011;15569;42.652;23.040;2022-08-25T09:07:55;33.05;;;10.80;;
28304;SDS011;15569;42.652;23.040;2022-08-25T09:10:25;29.95;;;10.07;;
28304;SDS011;15569;42.652;23.040;2022-08-25T09:18:46;22.00;;;6.05;;
28304;SDS011;15569;42.652;23.040;2022-08-25T09:25:03;15.43;;;6.18;;
28304;SDS011;15569;42.652;23.040;2022-08-25T09:32:29;14.68;;;5.35;;
28304;SDS011;15569;42.652;23.040;2022-08-25T09:34:59;19.10;;;5.68;;
28304;SDS011;15569;42.652;23.040;2022-08-25T09:37:26;14.80;;;5.50;;
28304;SDS011;15569;42.652;23.040;2022-08-25T09:39:51;22.98;;;5.03;;
28304;SDS011;15569;42.652;23.040;2022-08-25T09:42:17;18.05;;;4.22;;
28304;SDS011;15569;42.652;23.040;2022-08-25T09:44:44;21.65;;;4.15;;
28304;SDS011;15569;42.652;23.040;2022-08-25T09:49:43;27.17;;;6.03;;
28304;SDS011;15569;42.652;23.040;2022-08-25T09:54:48;19.15;;;3.88;;
28304;SDS011;15569;42.652;23.040;2022-08-25T09:57:35;25.10;;;3.80;;
28304;SDS011;15569;42.652;23.040;2022-08-25T10:00:10;29.13;;;3.72;;
28304;SDS011;15569;42.652;23.040;2022-08-25T10:06:07;19.40;;;3.40;;
28304;SDS011;15569;42.652;23.040;2022-08-25T10:08:38;20.67;;;3.70;;
28304;SDS011;15569;42.652;23.040;2022-08-25T10:11:30;22.48;;;3.55;;
28304;SDS011;15569;42.652;23.040;2022-08-25T10:16:53;11.70;;;3.20;;
28304;SDS011;15569;42.652;23.040;2022-08-25T10:19:37;20.23;;;3.13;;
28304;SDS011;15569;42.652;23.040;2022-08-25T10:22:04;18.92;;;3.67;;
28304;SDS011;15569;42.652;23.040;2022-08-25T10:24:56;26.00;;;4.20;;
28304;SDS011;15569;42.652;23.040;2022-08-25T10:27:26;11.00;;;2.58;;
28304;SDS011;15569;42.652;23.040;2022-08-25T10:35:32;4.47;;;2.65;;
28304;SDS011;15569;42.652;23.040;2022-08-25T10:59:50;18.65;;;4.22;;
28304;SDS011;15569;42.652;23.040;2022-08-25T11:02:36;14.90;;;3.85;;
28304;SDS011;15569;42.652;23.040;2022-08-25T11:05:26;19.70;;;4.68;;
28304;SDS011;15569;42.652;23.040;2022-08-25T11:08:38;24.55;;;4.88;;
28304;SDS011;15569;42.652;23.040;2022-08-25T11:13:59;14.63;;;2.95;;
28304;SDS011;15569;42.652;23.040;2022-08-25T11:19:34;15.95;;;4.97;;
28304;SDS011;15569;42.652;23.040;2022-08-25T11:27:00;25.50;;;8.30;;
28304;SDS011;15569;42.652;23.040;2022-08-25T11:29:32;20.63;;;3.67;;
28304;SDS011;15569;42.652;23.040;2022-08-25T11:34:27;23.75;;;4.68;;
28304;SDS011;15569;42.652;23.040;2022-08-25T11:37:00;19.33;;;5.72;;
28304;SDS011;15569;42.652;23.040;2022-08-25T11:42:30;13.98;;;4.22;;
28304;SDS011;15569;42.652;23.040;2022-08-25T11:55:45;24.25;;;5.85;;
28304;SDS011;15569;42.652;23.040;2022-08-25T12:00:47;16.30;;;4.55;;
28304;SDS011;15569;42.652;23.040;2022-08-25T12:16:43;17.38;;;3.33;;
28304;SDS011;15569;42.652;23.040;2022-08-25T12:27:07;11.25;;;4.45;;
28304;SDS011;15569;42.652;23.040;2022-08-25T12:37:18;27.30;;;4.35;;
28304;SDS011;15569;42.652;23.040;2022-08-25T12:42:22;16.67;;;3.20;;
28304;SDS011;15569;42.652;23.040;2022-08-25T12:47:34;12.05;;;3.45;;
28304;SDS011;15569;42.652;23.040;2022-08-25T12:53:05;13.05;;;5.10;;
28304;SDS011;15569;42.652;23.040;2022-08-25T12:55:32;11.52;;;3.63;;
28304;SDS011;15569;42.652;23.040;2022-08-25T12:57:58;8.18;;;3.05;;
28304;SDS011;15569;42.652;23.040;2022-08-25T13:00:31;14.32;;;3.25;;
28304;SDS011;15569;42.652;23.040;2022-08-25T13:03:18;16.27;;;3.45;;
28304;SDS011;15569;42.652;23.040;2022-08-25T13:06:06;15.40;;;3.28;;
28304;SDS011;15569;42.652;23.040;2022-08-25T13:08:57;15.55;;;3.50;;
28304;SDS011;15569;42.652;23.040;2022-08-25T13:16:53;16.83;;;3.78;;
28304;SDS011;15569;42.652;23.040;2022-08-25T13:19:20;14.60;;;3.78;;
28304;SDS011;15569;42.652;23.040;2022-08-25T13:21:46;11.48;;;3.60;;
28304;SDS011;15569;42.652;23.040;2022-08-25T13:24:16;15.98;;;4.03;;
28304;SDS011;15569;42.652;23.040;2022-08-25T13:26:43;17.30;;;3.30;;
28304;SDS011;15569;42.652;23.040;2022-08-25T13:29:14;16.25;;;2.92;;
28304;SDS011;15569;42.652;23.040;2022-08-25T13:31:54;13.68;;;2.40;;
28304;SDS011;15569;42.652;23.040;2022-08-25T13:34:32;21.70;;;4.35;;
28304;SDS011;15569;42.652;23.040;2022-08-25T13:37:06;11.32;;;3.28;;
28304;SDS011;15569;42.652;23.040;2022-08-25T13:42:41;12.20;;;3.20;;
28304;SDS011;15569;42.652;23.040;2022-08-25T13:45:09;15.02;;;4.72;;
28304;SDS011;15569;42.652;23.040;2022-08-25T13:47:42;8.63;;;3.63;;
28304;SDS011;15569;42.652;23.040;2022-08-25T13:50:15;7.95;;;2.95;;
28304;SDS011;15569;42.652;23.040;2022-08-25T13:55:24;13.23;;;2.97;;
28304;SDS011;15569;42.652;23.040;2022-08-25T13:57:55;6.97;;;2.78;;
28304;SDS011;15569;42.652;23.040;2022-08-25T14:01:05;14.48;;;4.00;;
28304;SDS011;15569;42.652;23.040;2022-08-25T14:03:34;10.63;;;3.13;;
28304;SDS011;15569;42.652;23.040;2022-08-25T14:08:41;11.52;;;3.10;;
28304;SDS011;15569;42.652;23.040;2022-08-25T14:13:35;22.50;;;3.05;;
28304;SDS011;15569;42.652;23.040;2022-08-25T14:16:12;11.65;;;3.20;;
28304;SDS011;15569;42.652;23.040;2022-08-25T14:18:47;11.63;;;3.95;;
28304;SDS011;15569;42.652;23.040;2022-08-25T14:21:16;18.05;;;4.53;;
28304;SDS011;15569;42.652;23.040;2022-08-25T14:23:44;11.05;;;3.30;;
28304;SDS011;15569;42.652;23.040;2022-08-25T14:26:09;17.85;;;3.17;;
28304;SDS011;15569;42.652;23.040;2022-08-25T14:28:35;13.05;;;3.92;;
28304;SDS011;15569;42.652;23.040;2022-08-25T14:31:13;21.67;;;4.90;;
28304;SDS011;15569;42.652;23.040;2022-08-25T14:33:50;18.33;;;4.50;;
28304;SDS011;15569;42.652;23.040;2022-08-25T14:36:20;23.10;;;5.22;;
28304;SDS011;15569;42.652;23.040;2022-08-25T14:38:45;15.27;;;4.53;;
28304;SDS011;15569;42.652;23.040;2022-08-25T14:41:11;17.27;;;4.30;;
28304;SDS011;15569;42.652;23.040;2022-08-25T14:43:36;20.50;;;3.65;;
28304;SDS011;15569;42.652;23.040;2022-08-25T14:46:08;20.33;;;3.53;;
28304;SDS011;15569;42.652;23.040;2022-08-25T14:48:39;19.35;;;4.00;;
28304;SDS011;15569;42.652;23.040;2022-08-25T14:51:07;17.42;;;3.60;;
28304;SDS011;15569;42.652;23.040;2022-08-25T14:53:38;22.98;;;3.58;;
28304;SDS011;15569;42.652;23.040;2022-08-25T14:56:03;20.23;;;3.30;;
28304;SDS011;15569;42.652;23.040;2022-08-25T14:58:29;10.77;;;2.85;;
28304;SDS011;15569;42.652;23.040;2022-08-25T15:00:55;11.70;;;3.15;;
28304;SDS011;15569;42.652;23.040;2022-08-25T15:03:31;18.90;;;3.05;;
28304;SDS011;15569;42.652;23.040;2022-08-25T15:06:00;15.73;;;2.88;;
28304;SDS011;15569;42.652;23.040;2022-08-25T15:08:25;12.43;;;4.00;;
28304;SDS011;15569;42.652;23.040;2022-08-25T15:11:09;9.63;;;2.75;;
28304;SDS011;15569;42.652;23.040;2022-08-25T15:13:35;15.52;;;3.03;;
28304;SDS011;15569;42.652;23.040;2022-08-25T15:16:00;30.35;;;5.65;;
28304;SDS011;15569;42.652;23.040;2022-08-25T15:18:27;24.15;;;6.35;;
28304;SDS011;15569;42.652;23.040;2022-08-25T15:20:52;15.85;;;4.22;;
28304;SDS011;15569;42.652;23.040;2022-08-25T15:23:17;14.25;;;3.30;;
28304;SDS011;15569;42.652;23.040;2022-08-25T18:50:36;20.80;;;6.22;;
28304;SDS011;15569;42.652;23.040;2022-08-25T18:53:04;12.63;;;4.23;;
28304;SDS011;15569;42.652;23.040;2022-08-25T18:55:30;16.13;;;4.10;;
28304;SDS011;15569;42.652;23.040;2022-08-25T18:57:56;15.65;;;4.20;;
28304;SDS011;15569;42.652;23.040;2022-08-25T19:00:23;17.17;;;4.00;;
28304;SDS011;15569;42.652;23.040;2022-08-25T19:02:51;11.98;;;3.42;;
28304;SDS011;15569;42.652;23.040;2022-08-25T19:05:19;14.40;;;3.03;;
28304;SDS011;15569;42.652;23.040;2022-08-25T19:07:51;16.75;;;4.65;;
28304;SDS011;15569;42.652;23.040;2022-08-25T19:10:17;29.88;;;6.68;;
28304;SDS011;15569;42.652;23.040;2022-08-25T19:12:44;32.20;;;7.50;;
28304;SDS011;15569;42.652;23.040;2022-08-25T19:15:09;26.85;;;7.45;;
28304;SDS011;15569;42.652;23.040;2022-08-25T19:17:35;21.25;;;7.18;;
28304;SDS011;15569;42.652;23.040;2022-08-25T19:20:01;17.98;;;5.75;;
28304;SDS011;15569;42.652;23.040;2022-08-25T19:22:28;13.23;;;4.47;;
28304;SDS011;15569;42.652;23.040;2022-08-25T19:24:53;22.90;;;4.50;;
28304;SDS011;15569;42.652;23.040;2022-08-25T19:27:19;13.80;;;4.40;;
28304;SDS011;15569;42.652;23.040;2022-08-25T19:29:44;9.13;;;4.53;;
28304;SDS011;15569;42.652;23.040;2022-08-25T19:32:10;27.30;;;3.97;;
28304;SDS011;15569;42.652;23.040;2022-08-25T19:34:39;20.83;;;4.35;;
28304;SDS011;15569;42.652;23.040;2022-08-25T19:37:07;19.42;;;4.60;;
28304;SDS011;15569;42.652;23.040;2022-08-25T19:39:35;18.88;;;4.32;;
28304;SDS011;15569;42.652;23.040;2022-08-25T19:42:04;10.70;;;3.38;;
28304;SDS011;15569;42.652;23.040;2022-08-25T19:44:30;11.73;;;3.35;;
28304;SDS011;15569;42.652;23.040;2022-08-25T19:46:56;6.43;;;2.67;;
28304;SDS011;15569;42.652;23.040;2022-08-25T19:49:26;11.50;;;3.33;;
28304;SDS011;15569;42.652;23.040;2022-08-25T19:51:57;13.00;;;3.47;;
28304;SDS011;15569;42.652;23.040;2022-08-25T19:54:25;16.40;;;3.45;;
28304;SDS011;15569;42.652;23.040;2022-08-25T19:56:53;13.15;;;4.30;;
28304;SDS011;15569;42.652;23.040;2022-08-25T19:59:20;17.25;;;3.65;;
28304;SDS011;15569;42.652;23.040;2022-08-25T20:01:50;10.55;;;3.72;;
28304;SDS011;15569;42.652;23.040;2022-08-25T20:04:16;11.70;;;2.85;;
28304;SDS011;15569;42.652;23.040;2022-08-25T20:06:41;13.48;;;3.45;;
28304;SDS011;15569;42.652;23.040;2022-08-25T20:09:07;7.50;;;3.15;;
28304;SDS011;15569;42.652;23.040;2022-08-25T20:11:33;12.75;;;3.22;;
28304;SDS011;15569;42.652;23.040;2022-08-25T20:13:59;20.90;;;3.95;;
28304;SDS011;15569;42.652;23.040;2022-08-25T20:16:25;10.95;;;3.33;;
28304;SDS011;15569;42.652;23.040;2022-08-25T20:18:51;17.05;;;4.82;;
28304;SDS011;15569;42.652;23.040;2022-08-25T20:21:17;30.42;;;4.03;;
28304;SDS011;15569;42.652;23.040;2022-08-25T20:23:42;20.45;;;4.47;;
28304;SDS011;15569;42.652;23.040;2022-08-25T20:26:26;12.23;;;3.40;;
28304;SDS011;15569;42.652;23.040;2022-08-25T20:28:53;5.57;;;2.90;;
28304;SDS011;15569;42.652;23.040;2022-08-25T20:31:20;9.88;;;3.38;;
28304;SDS011;15569;42.652;23.040;2022-08-25T20:33:45;16.40;;;3.47;;